sensor_id;sensor_type;location;lat;lon;timestamp;P1;durP1;ratioP1;P2;durP2;ratioP2
37169;SDS011;23062;13.952;100.608;2022-11-15T00:04:08;8.00;;;6.00;;
37169;SDS011;23062;13.952;100.608;2022-11-15T00:08:34;8.00;;;5.00;;
37169;SDS011;23062;13.952;100.608;2022-11-15T00:13:00;4.00;;;3.00;;
37169;SDS011;23062;13.952;100.608;2022-11-15T00:17:29;6.00;;;4.00;;
37169;SDS011;23062;13.952;100.608;2022-11-15T00:21:53;4.00;;;3.00;;
37169;SDS011;23062;13.952;100.608;2022-11-15T00:26:19;6.00;;;4.00;;
37169;SDS011;23062;13.952;100.608;2022-11-15T00:30:44;7.00;;;5.00;;
37169;SDS011;23062;13.952;100.608;2022-11-15T00:35:09;7.00;;;5.00;;
37169;SDS011;23062;13.952;100.608;2022-11-15T00:39:34;7.00;;;5.00;;
37169;SDS011;23062;13.952;100.608;2022-11-15T00:43:59;7.00;;;5.00;;
37169;SDS011;23062;13.952;100.608;2022-11-15T00:48:24;7.00;;;5.00;;
37169;SDS011;23062;13.952;100.608;2022-11-15T00:52:49;6.00;;;4.00;;
37169;SDS011;23062;13.952;100.608;2022-11-15T00:57:14;8.00;;;5.00;;
37169;SDS011;23062;13.952;100.608;2022-11-15T01:01:39;4.00;;;2.00;;
37169;SDS011;23062;13.952;100.608;2022-11-15T01:06:04;6.00;;;4.00;;
37169;SDS011;23062;13.952;100.608;2022-11-15T01:10:30;5.00;;;3.00;;
37169;SDS011;23062;13.952;100.608;2022-11-15T01:14:55;5.00;;;3.00;;
37169;SDS011;23062;13.952;100.608;2022-11-15T01:19:20;6.00;;;4.00;;
37169;SDS011;23062;13.952;100.608;2022-11-15T01:23:44;6.00;;;4.00;;
37169;SDS011;23062;13.952;100.608;2022-11-15T01:28:10;5.00;;;2.80;;
37169;SDS011;23062;13.952;100.608;2022-11-15T01:32:35;3.00;;;2.00;;
37169;SDS011;23062;13.952;100.608;2022-11-15T01:37:00;8.00;;;5.00;;
37169;SDS011;23062;13.952;100.608;2022-11-15T01:41:26;5.00;;;3.00;;
37169;SDS011;23062;13.952;100.608;2022-11-15T01:45:56;5.00;;;3.00;;
37169;SDS011;23062;13.952;100.608;2022-11-15T01:50:27;5.00;;;3.00;;
37169;SDS011;23062;13.952;100.608;2022-11-15T01:54:56;5.00;;;3.00;;
37169;SDS011;23062;13.952;100.608;2022-11-15T01:59:20;5.00;;;3.00;;
37169;SDS011;23062;13.952;100.608;2022-11-15T02:03:50;3.00;;;2.00;;
37169;SDS011;23062;13.952;100.608;2022-11-15T02:08:22;3.00;;;2.00;;
37169;SDS011;23062;13.952;100.608;2022-11-15T02:12:47;3.00;;;2.00;;
37169;SDS011;23062;13.952;100.608;2022-11-15T02:17:23;3.00;;;2.00;;
37169;SDS011;23062;13.952;100.608;2022-11-15T02:26:45;6.00;;;4.00;;
37169;SDS011;23062;13.952;100.608;2022-11-15T02:36:05;3.00;;;2.00;;
37169;SDS011;23062;13.952;100.608;2022-11-15T02:40:45;4.00;;;2.00;;
37169;SDS011;23062;13.952;100.608;2022-11-15T02:45:22;5.00;;;3.00;;
37169;SDS011;23062;13.952;100.608;2022-11-15T02:49:57;5.00;;;3.00;;
37169;SDS011;23062;13.952;100.608;2022-11-15T02:54:23;3.00;;;2.00;;
37169;SDS011;23062;13.952;100.608;2022-11-15T03:08:23;3.00;;;2.00;;
37169;SDS011;23062;13.952;100.608;2022-11-15T03:12:54;4.00;;;3.00;;
37169;SDS011;23062;13.952;100.608;2022-11-15T03:17:23;4.00;;;2.00;;
37169;SDS011;23062;13.952;100.608;2022-11-15T03:21:50;4.00;;;3.00;;
37169;SDS011;23062;13.952;100.608;2022-11-15T03:26:17;4.00;;;2.00;;
37169;SDS011;23062;13.952;100.608;2022-11-15T03:30:44;3.00;;;2.00;;
37169;SDS011;23062;13.952;100.608;2022-11-15T03:35:15;2.00;;;1.00;;
37169;SDS011;23062;13.952;100.608;2022-11-15T03:39:39;2.00;;;1.00;;
37169;SDS011;23062;13.952;100.608;2022-11-15T03:44:06;2.00;;;1.00;;
37169;SDS011;23062;13.952;100.608;2022-11-15T03:48:37;4.00;;;2.00;;
37169;SDS011;23062;13.952;100.608;2022-11-15T03:53:03;4.00;;;2.00;;
37169;SDS011;23062;13.952;100.608;2022-11-15T03:57:28;2.00;;;1.00;;
37169;SDS011;23062;13.952;100.608;2022-11-15T04:01:55;2.00;;;1.00;;
37169;SDS011;23062;13.952;100.608;2022-11-15T04:06:19;4.00;;;2.00;;
37169;SDS011;23062;13.952;100.608;2022-11-15T04:10:45;2.00;;;1.00;;
37169;SDS011;23062;13.952;100.608;2022-11-15T04:15:12;3.00;;;2.00;;
37169;SDS011;23062;13.952;100.608;2022-11-15T04:19:38;3.00;;;2.00;;
37169;SDS011;23062;13.952;100.608;2022-11-15T04:24:21;4.00;;;2.00;;
37169;SDS011;23062;13.952;100.608;2022-11-15T04:28:47;3.00;;;2.00;;
37169;SDS011;23062;13.952;100.608;2022-11-15T04:33:29;4.00;;;2.00;;
37169;SDS011;23062;13.952;100.608;2022-11-15T04:37:54;4.00;;;3.00;;
37169;SDS011;23062;13.952;100.608;2022-11-15T04:42:20;3.00;;;2.00;;
37169;SDS011;23062;13.952;100.608;2022-11-15T04:46:45;4.00;;;2.00;;
37169;SDS011;23062;13.952;100.608;2022-11-15T04:51:10;3.00;;;2.00;;
37169;SDS011;23062;13.952;100.608;2022-11-15T04:55:35;3.00;;;2.00;;
37169;SDS011;23062;13.952;100.608;2022-11-15T05:00:01;3.00;;;2.00;;
37169;SDS011;23062;13.952;100.608;2022-11-15T05:04:27;4.00;;;2.00;;
37169;SDS011;23062;13.952;100.608;2022-11-15T05:08:52;4.00;;;2.00;;
37169;SDS011;23062;13.952;100.608;2022-11-15T05:13:18;4.00;;;2.00;;
37169;SDS011;23062;13.952;100.608;2022-11-15T05:17:43;5.00;;;3.00;;
37169;SDS011;23062;13.952;100.608;2022-11-15T05:22:08;3.00;;;2.00;;
37169;SDS011;23062;13.952;100.608;2022-11-15T05:26:33;4.00;;;3.00;;
37169;SDS011;23062;13.952;100.608;2022-11-15T05:31:02;5.00;;;3.00;;
37169;SDS011;23062;13.952;100.608;2022-11-15T05:35:34;6.00;;;4.00;;
37169;SDS011;23062;13.952;100.608;2022-11-15T05:40:00;4.00;;;3.00;;
37169;SDS011;23062;13.952;100.608;2022-11-15T05:44:26;6.00;;;3.73;;
37169;SDS011;23062;13.952;100.608;2022-11-15T05:48:52;6.00;;;4.00;;
37169;SDS011;23062;13.952;100.608;2022-11-15T05:53:19;5.00;;;3.00;;
37169;SDS011;23062;13.952;100.608;2022-11-15T05:57:46;6.00;;;4.00;;
37169;SDS011;23062;13.952;100.608;2022-11-15T06:02:12;6.00;;;4.00;;
37169;SDS011;23062;13.952;100.608;2022-11-15T06:06:37;7.00;;;4.00;;
37169;SDS011;23062;13.952;100.608;2022-11-15T06:11:05;7.00;;;4.00;;
37169;SDS011;23062;13.952;100.608;2022-11-15T06:15:31;7.00;;;4.00;;
37169;SDS011;23062;13.952;100.608;2022-11-15T06:19:56;5.00;;;3.00;;
37169;SDS011;23062;13.952;100.608;2022-11-15T06:24:21;5.00;;;3.00;;
37169;SDS011;23062;13.952;100.608;2022-11-15T06:28:46;5.00;;;3.00;;
37169;SDS011;23062;13.952;100.608;2022-11-15T06:33:11;4.00;;;3.00;;
37169;SDS011;23062;13.952;100.608;2022-11-15T06:37:37;5.00;;;3.00;;
37169;SDS011;23062;13.952;100.608;2022-11-15T06:42:03;6.00;;;4.00;;
37169;SDS011;23062;13.952;100.608;2022-11-15T06:46:28;4.00;;;3.00;;
37169;SDS011;23062;13.952;100.608;2022-11-15T06:50:54;5.00;;;3.00;;
37169;SDS011;23062;13.952;100.608;2022-11-15T06:55:20;6.00;;;4.00;;
37169;SDS011;23062;13.952;100.608;2022-11-15T06:59:45;2.00;;;1.00;;
37169;SDS011;23062;13.952;100.608;2022-11-15T07:04:11;4.00;;;2.00;;
37169;SDS011;23062;13.952;100.608;2022-11-15T07:08:36;4.00;;;2.80;;
37169;SDS011;23062;13.952;100.608;2022-11-15T07:13:01;3.00;;;2.00;;
37169;SDS011;23062;13.952;100.608;2022-11-15T07:17:27;3.00;;;2.00;;
37169;SDS011;23062;13.952;100.608;2022-11-15T07:21:53;3.00;;;1.00;;
37169;SDS011;23062;13.952;100.608;2022-11-15T07:26:18;3.00;;;2.00;;
37169;SDS011;23062;13.952;100.608;2022-11-15T07:30:43;3.00;;;2.00;;
37169;SDS011;23062;13.952;100.608;2022-11-15T07:35:12;3.00;;;2.00;;
37169;SDS011;23062;13.952;100.608;2022-11-15T07:39:37;3.00;;;2.00;;
37169;SDS011;23062;13.952;100.608;2022-11-15T07:44:02;3.00;;;1.00;;
37169;SDS011;23062;13.952;100.608;2022-11-15T07:48:27;3.00;;;2.00;;
37169;SDS011;23062;13.952;100.608;2022-11-15T07:52:56;3.00;;;2.00;;
37169;SDS011;23062;13.952;100.608;2022-11-15T07:57:23;5.00;;;3.00;;
37169;SDS011;23062;13.952;100.608;2022-11-15T08:01:48;4.00;;;2.00;;
37169;SDS011;23062;13.952;100.608;2022-11-15T08:06:13;4.00;;;2.00;;
37169;SDS011;23062;13.952;100.608;2022-11-15T08:10:38;4.00;;;1.87;;
37169;SDS011;23062;13.952;100.608;2022-11-15T08:15:04;4.00;;;2.00;;
37169;SDS011;23062;13.952;100.608;2022-11-15T08:19:29;3.00;;;2.00;;
37169;SDS011;23062;13.952;100.608;2022-11-15T08:23:54;5.00;;;3.00;;
37169;SDS011;23062;13.952;100.608;2022-11-15T08:28:19;3.00;;;1.00;;
37169;SDS011;23062;13.952;100.608;2022-11-15T08:32:44;3.00;;;2.00;;
37169;SDS011;23062;13.952;100.608;2022-11-15T08:37:09;4.00;;;2.00;;
37169;SDS011;23062;13.952;100.608;2022-11-15T08:41:36;4.00;;;2.00;;
37169;SDS011;23062;13.952;100.608;2022-11-15T08:46:02;4.00;;;2.00;;
37169;SDS011;23062;13.952;100.608;2022-11-15T08:50:27;5.00;;;3.00;;
37169;SDS011;23062;13.952;100.608;2022-11-15T08:54:53;4.00;;;2.00;;
37169;SDS011;23062;13.952;100.608;2022-11-15T08:59:17;3.00;;;2.00;;
37169;SDS011;23062;13.952;100.608;2022-11-15T09:03:43;5.00;;;3.00;;
37169;SDS011;23062;13.952;100.608;2022-11-15T09:08:08;2.00;;;1.00;;
37169;SDS011;23062;13.952;100.608;2022-11-15T09:12:33;3.00;;;2.00;;
37169;SDS011;23062;13.952;100.608;2022-11-15T09:17:00;4.00;;;2.00;;
37169;SDS011;23062;13.952;100.608;2022-11-15T09:21:25;3.00;;;2.00;;
37169;SDS011;23062;13.952;100.608;2022-11-15T09:25:51;4.00;;;3.00;;
37169;SDS011;23062;13.952;100.608;2022-11-15T09:30:18;4.00;;;2.00;;
37169;SDS011;23062;13.952;100.608;2022-11-15T09:34:43;4.00;;;2.00;;
37169;SDS011;23062;13.952;100.608;2022-11-15T09:39:08;2.00;;;1.00;;
37169;SDS011;23062;13.952;100.608;2022-11-15T09:48:25;3.00;;;2.00;;
37169;SDS011;23062;13.952;100.608;2022-11-15T09:52:50;4.00;;;2.00;;
37169;SDS011;23062;13.952;100.608;2022-11-15T10:02:03;2.00;;;1.00;;
37169;SDS011;23062;13.952;100.608;2022-11-15T10:06:27;3.00;;;2.00;;
37169;SDS011;23062;13.952;100.608;2022-11-15T10:11:01;3.00;;;2.00;;
37169;SDS011;23062;13.952;100.608;2022-11-15T10:15:29;3.00;;;2.00;;
37169;SDS011;23062;13.952;100.608;2022-11-15T10:24:47;4.00;;;2.00;;
37169;SDS011;23062;13.952;100.608;2022-11-15T10:29:23;4.00;;;3.00;;
37169;SDS011;23062;13.952;100.608;2022-11-15T10:33:44;5.00;;;3.00;;
37169;SDS011;23062;13.952;100.608;2022-11-15T10:38:10;5.00;;;3.00;;
37169;SDS011;23062;13.952;100.608;2022-11-15T10:42:36;4.00;;;2.00;;
37169;SDS011;23062;13.952;100.608;2022-11-15T10:47:05;4.00;;;2.00;;
37169;SDS011;23062;13.952;100.608;2022-11-15T10:51:33;4.00;;;3.00;;
37169;SDS011;23062;13.952;100.608;2022-11-15T10:56:03;3.00;;;2.00;;
37169;SDS011;23062;13.952;100.608;2022-11-15T11:00:32;4.00;;;2.00;;
37169;SDS011;23062;13.952;100.608;2022-11-15T11:04:57;6.00;;;4.00;;
37169;SDS011;23062;13.952;100.608;2022-11-15T11:09:31;5.00;;;3.00;;
37169;SDS011;23062;13.952;100.608;2022-11-15T11:14:11;6.00;;;4.00;;
37169;SDS011;23062;13.952;100.608;2022-11-15T11:18:33;5.00;;;3.00;;
37169;SDS011;23062;13.952;100.608;2022-11-15T11:37:47;4.00;;;3.00;;
37169;SDS011;23062;13.952;100.608;2022-11-15T11:42:29;5.00;;;3.00;;
37169;SDS011;23062;13.952;100.608;2022-11-15T11:51:53;3.00;;;2.00;;
37169;SDS011;23062;13.952;100.608;2022-11-15T11:56:33;5.00;;;3.00;;
37169;SDS011;23062;13.952;100.608;2022-11-15T12:05:56;6.00;;;4.00;;
37169;SDS011;23062;13.952;100.608;2022-11-15T12:10:28;6.00;;;4.00;;
37169;SDS011;23062;13.952;100.608;2022-11-15T12:14:52;9.00;;;6.00;;
37169;SDS011;23062;13.952;100.608;2022-11-15T12:19:19;12.00;;;8.00;;
37169;SDS011;23062;13.952;100.608;2022-11-15T12:23:46;9.00;;;6.00;;
37169;SDS011;23062;13.952;100.608;2022-11-15T12:33:00;8.00;;;6.00;;
37169;SDS011;23062;13.952;100.608;2022-11-15T12:37:32;8.00;;;6.00;;
37169;SDS011;23062;13.952;100.608;2022-11-15T12:51:11;8.00;;;6.00;;
37169;SDS011;23062;13.952;100.608;2022-11-15T12:55:36;9.00;;;6.00;;
37169;SDS011;23062;13.952;100.608;2022-11-15T13:04:44;9.00;;;6.00;;
37169;SDS011;23062;13.952;100.608;2022-11-15T13:13:53;7.00;;;5.00;;
37169;SDS011;23062;13.952;100.608;2022-11-15T13:18:29;9.00;;;6.00;;
37169;SDS011;23062;13.952;100.608;2022-11-15T13:27:27;8.00;;;6.00;;
37169;SDS011;23062;13.952;100.608;2022-11-15T13:31:53;10.00;;;7.00;;
37169;SDS011;23062;13.952;100.608;2022-11-15T13:36:19;9.00;;;6.00;;
37169;SDS011;23062;13.952;100.608;2022-11-15T13:40:46;10.00;;;7.00;;
37169;SDS011;23062;13.952;100.608;2022-11-15T13:45:12;8.00;;;5.60;;
37169;SDS011;23062;13.952;100.608;2022-11-15T13:49:38;12.00;;;8.00;;
37169;SDS011;23062;13.952;100.608;2022-11-15T13:58:53;10.00;;;7.00;;
37169;SDS011;23062;13.952;100.608;2022-11-15T14:03:19;9.00;;;6.00;;
37169;SDS011;23062;13.952;100.608;2022-11-15T14:12:31;8.00;;;6.00;;
37169;SDS011;23062;13.952;100.608;2022-11-15T14:16:59;7.00;;;5.00;;
37169;SDS011;23062;13.952;100.608;2022-11-15T14:21:26;9.00;;;6.00;;
37169;SDS011;23062;13.952;100.608;2022-11-15T14:25:59;8.00;;;6.00;;
37169;SDS011;23062;13.952;100.608;2022-11-15T14:30:21;8.00;;;6.00;;
37169;SDS011;23062;13.952;100.608;2022-11-15T14:34:47;8.00;;;5.00;;
37169;SDS011;23062;13.952;100.608;2022-11-15T14:39:13;9.00;;;6.00;;
37169;SDS011;23062;13.952;100.608;2022-11-15T14:43:38;11.00;;;7.00;;
37169;SDS011;23062;13.952;100.608;2022-11-15T14:48:04;8.00;;;6.00;;
37169;SDS011;23062;13.952;100.608;2022-11-15T14:52:30;8.00;;;5.00;;
37169;SDS011;23062;13.952;100.608;2022-11-15T14:56:57;7.00;;;4.00;;
37169;SDS011;23062;13.952;100.608;2022-11-15T15:01:25;6.00;;;4.00;;
37169;SDS011;23062;13.952;100.608;2022-11-15T15:05:50;5.00;;;3.00;;
37169;SDS011;23062;13.952;100.608;2022-11-15T15:10:17;5.00;;;4.00;;
37169;SDS011;23062;13.952;100.608;2022-11-15T15:14:44;6.00;;;4.00;;
37169;SDS011;23062;13.952;100.608;2022-11-15T15:19:25;6.00;;;4.00;;
37169;SDS011;23062;13.952;100.608;2022-11-15T15:23:51;6.00;;;4.00;;
37169;SDS011;23062;13.952;100.608;2022-11-15T15:28:17;7.00;;;5.00;;
37169;SDS011;23062;13.952;100.608;2022-11-15T15:32:43;6.00;;;4.00;;
37169;SDS011;23062;13.952;100.608;2022-11-15T15:37:24;4.00;;;2.00;;
37169;SDS011;23062;13.952;100.608;2022-11-15T15:41:50;5.00;;;3.00;;
37169;SDS011;23062;13.952;100.608;2022-11-15T15:46:15;4.00;;;3.00;;
37169;SDS011;23062;13.952;100.608;2022-11-15T15:50:42;3.00;;;2.00;;
37169;SDS011;23062;13.952;100.608;2022-11-15T15:55:07;5.00;;;3.00;;
37169;SDS011;23062;13.952;100.608;2022-11-15T15:59:33;3.00;;;2.00;;
37169;SDS011;23062;13.952;100.608;2022-11-15T16:03:58;4.00;;;3.00;;
37169;SDS011;23062;13.952;100.608;2022-11-15T16:08:23;4.00;;;2.00;;
37169;SDS011;23062;13.952;100.608;2022-11-15T16:12:52;3.00;;;1.00;;
37169;SDS011;23062;13.952;100.608;2022-11-15T16:17:18;3.00;;;2.00;;
37169;SDS011;23062;13.952;100.608;2022-11-15T16:21:45;3.00;;;2.00;;
37169;SDS011;23062;13.952;100.608;2022-11-15T16:26:21;3.00;;;2.00;;
37169;SDS011;23062;13.952;100.608;2022-11-15T16:30:47;3.00;;;2.00;;
37169;SDS011;23062;13.952;100.608;2022-11-15T16:35:16;3.00;;;2.00;;
37169;SDS011;23062;13.952;100.608;2022-11-15T16:39:41;2.00;;;1.00;;
37169;SDS011;23062;13.952;100.608;2022-11-15T16:44:06;2.00;;;1.00;;
37169;SDS011;23062;13.952;100.608;2022-11-15T16:48:32;2.00;;;1.00;;
37169;SDS011;23062;13.952;100.608;2022-11-15T16:52:58;3.00;;;1.87;;
37169;SDS011;23062;13.952;100.608;2022-11-15T16:57:25;3.00;;;2.00;;
37169;SDS011;23062;13.952;100.608;2022-11-15T17:01:51;2.00;;;1.00;;
37169;SDS011;23062;13.952;100.608;2022-11-15T17:06:16;4.00;;;2.00;;
37169;SDS011;23062;13.952;100.608;2022-11-15T17:10:41;3.00;;;2.00;;
37169;SDS011;23062;13.952;100.608;2022-11-15T17:15:07;4.00;;;2.00;;
37169;SDS011;23062;13.952;100.608;2022-11-15T17:19:33;2.00;;;1.00;;
37169;SDS011;23062;13.952;100.608;2022-11-15T17:23:58;5.00;;;3.00;;
37169;SDS011;23062;13.952;100.608;2022-11-15T17:28:23;2.00;;;1.00;;
37169;SDS011;23062;13.952;100.608;2022-11-15T17:32:49;3.00;;;2.00;;
37169;SDS011;23062;13.952;100.608;2022-11-15T17:37:14;2.00;;;1.00;;
37169;SDS011;23062;13.952;100.608;2022-11-15T17:41:39;4.00;;;2.00;;
37169;SDS011;23062;13.952;100.608;2022-11-15T17:46:05;4.00;;;2.00;;
37169;SDS011;23062;13.952;100.608;2022-11-15T17:50:31;2.00;;;1.00;;
37169;SDS011;23062;13.952;100.608;2022-11-15T17:54:56;4.00;;;2.00;;
37169;SDS011;23062;13.952;100.608;2022-11-15T17:59:22;2.00;;;1.00;;
37169;SDS011;23062;13.952;100.608;2022-11-15T18:03:47;3.00;;;2.00;;
37169;SDS011;23062;13.952;100.608;2022-11-15T18:08:12;3.00;;;2.00;;
37169;SDS011;23062;13.952;100.608;2022-11-15T18:12:41;5.00;;;3.00;;
37169;SDS011;23062;13.952;100.608;2022-11-15T18:17:06;2.00;;;1.00;;
37169;SDS011;23062;13.952;100.608;2022-11-15T18:21:31;3.00;;;1.73;;
37169;SDS011;23062;13.952;100.608;2022-11-15T18:25:59;4.00;;;1.87;;
37169;SDS011;23062;13.952;100.608;2022-11-15T18:30:25;4.00;;;2.00;;
37169;SDS011;23062;13.952;100.608;2022-11-15T18:34:50;3.00;;;2.00;;
37169;SDS011;23062;13.952;100.608;2022-11-15T18:39:16;4.00;;;2.00;;
37169;SDS011;23062;13.952;100.608;2022-11-15T18:43:41;4.00;;;2.00;;
37169;SDS011;23062;13.952;100.608;2022-11-15T18:48:06;3.00;;;1.00;;
37169;SDS011;23062;13.952;100.608;2022-11-15T18:52:31;6.00;;;4.00;;
37169;SDS011;23062;13.952;100.608;2022-11-15T18:56:56;3.00;;;2.00;;
37169;SDS011;23062;13.952;100.608;2022-11-15T19:01:22;3.00;;;2.00;;
37169;SDS011;23062;13.952;100.608;2022-11-15T19:05:49;4.00;;;2.00;;
37169;SDS011;23062;13.952;100.608;2022-11-15T19:10:14;2.00;;;1.00;;
37169;SDS011;23062;13.952;100.608;2022-11-15T19:14:39;2.00;;;1.00;;
37169;SDS011;23062;13.952;100.608;2022-11-15T19:19:09;2.00;;;0.93;;
37169;SDS011;23062;13.952;100.608;2022-11-15T19:23:35;3.00;;;2.00;;
37169;SDS011;23062;13.952;100.608;2022-11-15T19:28:03;6.00;;;4.00;;
37169;SDS011;23062;13.952;100.608;2022-11-15T19:32:28;5.00;;;3.00;;
37169;SDS011;23062;13.952;100.608;2022-11-15T19:36:53;5.00;;;3.00;;
37169;SDS011;23062;13.952;100.608;2022-11-15T19:41:19;4.00;;;2.00;;
37169;SDS011;23062;13.952;100.608;2022-11-15T19:45:50;5.00;;;3.00;;
37169;SDS011;23062;13.952;100.608;2022-11-15T19:50:21;5.00;;;3.00;;
37169;SDS011;23062;13.952;100.608;2022-11-15T19:54:46;3.00;;;2.00;;
37169;SDS011;23062;13.952;100.608;2022-11-15T19:59:11;4.00;;;3.00;;
37169;SDS011;23062;13.952;100.608;2022-11-15T20:03:37;5.00;;;3.00;;
37169;SDS011;23062;13.952;100.608;2022-11-15T20:08:02;5.00;;;3.00;;
37169;SDS011;23062;13.952;100.608;2022-11-15T20:12:28;4.00;;;2.00;;
37169;SDS011;23062;13.952;100.608;2022-11-15T20:16:53;4.00;;;2.00;;
37169;SDS011;23062;13.952;100.608;2022-11-15T20:21:19;5.00;;;3.00;;
37169;SDS011;23062;13.952;100.608;2022-11-15T20:25:45;5.00;;;3.00;;
37169;SDS011;23062;13.952;100.608;2022-11-15T20:30:11;5.00;;;3.00;;
37169;SDS011;23062;13.952;100.608;2022-11-15T20:34:36;4.00;;;3.00;;
37169;SDS011;23062;13.952;100.608;2022-11-15T20:39:01;5.00;;;2.80;;
37169;SDS011;23062;13.952;100.608;2022-11-15T20:43:26;5.00;;;3.00;;
37169;SDS011;23062;13.952;100.608;2022-11-15T20:47:54;5.00;;;3.00;;
37169;SDS011;23062;13.952;100.608;2022-11-15T20:52:18;6.00;;;4.00;;
37169;SDS011;23062;13.952;100.608;2022-11-15T20:56:44;8.00;;;5.00;;
37169;SDS011;23062;13.952;100.608;2022-11-15T21:01:09;6.00;;;4.00;;
37169;SDS011;23062;13.952;100.608;2022-11-15T21:05:38;9.00;;;6.00;;
37169;SDS011;23062;13.952;100.608;2022-11-15T21:10:05;8.00;;;5.00;;
37169;SDS011;23062;13.952;100.608;2022-11-15T21:14:48;9.00;;;6.00;;
37169;SDS011;23062;13.952;100.608;2022-11-15T21:19:15;7.00;;;5.00;;
37169;SDS011;23062;13.952;100.608;2022-11-15T21:23:40;9.00;;;6.00;;
37169;SDS011;23062;13.952;100.608;2022-11-15T21:28:09;8.00;;;4.67;;
37169;SDS011;23062;13.952;100.608;2022-11-15T21:32:34;9.00;;;6.00;;
37169;SDS011;23062;13.952;100.608;2022-11-15T21:37:00;8.00;;;6.00;;
37169;SDS011;23062;13.952;100.608;2022-11-15T21:41:25;11.00;;;8.00;;
37169;SDS011;23062;13.952;100.608;2022-11-15T21:46:04;8.00;;;6.00;;
37169;SDS011;23062;13.952;100.608;2022-11-15T21:50:28;13.00;;;9.00;;
37169;SDS011;23062;13.952;100.608;2022-11-15T21:54:53;10.00;;;7.00;;
37169;SDS011;23062;13.952;100.608;2022-11-15T21:59:18;11.00;;;7.00;;
37169;SDS011;23062;13.952;100.608;2022-11-15T22:03:43;10.00;;;7.00;;
37169;SDS011;23062;13.952;100.608;2022-11-15T22:08:34;9.00;;;7.00;;
37169;SDS011;23062;13.952;100.608;2022-11-15T22:12:59;9.00;;;7.00;;
37169;SDS011;23062;13.952;100.608;2022-11-15T22:17:25;12.00;;;9.00;;
37169;SDS011;23062;13.952;100.608;2022-11-15T22:21:51;8.00;;;6.00;;
37169;SDS011;23062;13.952;100.608;2022-11-15T22:26:16;10.00;;;7.00;;
37169;SDS011;23062;13.952;100.608;2022-11-15T22:30:46;9.00;;;7.00;;
37169;SDS011;23062;13.952;100.608;2022-11-15T22:35:12;9.00;;;7.00;;
37169;SDS011;23062;13.952;100.608;2022-11-15T22:39:46;7.00;;;5.00;;
37169;SDS011;23062;13.952;100.608;2022-11-15T22:44:11;9.00;;;7.00;;
37169;SDS011;23062;13.952;100.608;2022-11-15T22:48:37;11.00;;;8.00;;
37169;SDS011;23062;13.952;100.608;2022-11-15T22:53:02;13.00;;;10.00;;
37169;SDS011;23062;13.952;100.608;2022-11-15T22:57:29;11.00;;;8.00;;
37169;SDS011;23062;13.952;100.608;2022-11-15T23:01:54;11.00;;;7.00;;
37169;SDS011;23062;13.952;100.608;2022-11-15T23:06:22;10.00;;;7.00;;
37169;SDS011;23062;13.952;100.608;2022-11-15T23:10:47;12.00;;;8.00;;
37169;SDS011;23062;13.952;100.608;2022-11-15T23:15:30;9.00;;;7.00;;
37169;SDS011;23062;13.952;100.608;2022-11-15T23:20:13;14.00;;;10.00;;
37169;SDS011;23062;13.952;100.608;2022-11-15T23:24:38;15.00;;;10.00;;
37169;SDS011;23062;13.952;100.608;2022-11-15T23:29:03;13.00;;;9.00;;
37169;SDS011;23062;13.952;100.608;2022-11-15T23:33:29;14.00;;;10.00;;
37169;SDS011;23062;13.952;100.608;2022-11-15T23:38:12;14.00;;;10.00;;
37169;SDS011;23062;13.952;100.608;2022-11-15T23:42:38;15.00;;;11.00;;
37169;SDS011;23062;13.952;100.608;2022-11-15T23:47:04;16.00;;;11.00;;
37169;SDS011;23062;13.952;100.608;2022-11-15T23:51:30;14.00;;;11.00;;
37169;SDS011;23062;13.952;100.608;2022-11-15T23:55:59;16.00;;;11.00;;
